sensor_id;sensor_type;location;lat;lon;timestamp;temperature;humidity
16767;DHT22;8501;49.926;8.404;2024-02-26T00:00:00;7.90;99.90
16767;DHT22;8501;49.926;8.404;2024-02-26T00:02:25;7.90;99.90
16767;DHT22;8501;49.926;8.404;2024-02-26T00:04:51;7.90;99.90
16767;DHT22;8501;49.926;8.404;2024-02-26T00:07:17;7.90;99.90
16767;DHT22;8501;49.926;8.404;2024-02-26T00:09:42;7.90;99.90
16767;DHT22;8501;49.926;8.404;2024-02-26T00:12:08;7.90;99.90
16767;DHT22;8501;49.926;8.404;2024-02-26T00:14:33;7.90;99.90
16767;DHT22;8501;49.926;8.404;2024-02-26T00:17:00;7.90;99.90
16767;DHT22;8501;49.926;8.404;2024-02-26T00:19:27;7.90;99.90
16767;DHT22;8501;49.926;8.404;2024-02-26T00:21:52;7.90;99.90
16767;DHT22;8501;49.926;8.404;2024-02-26T00:24:20;7.90;99.90
16767;DHT22;8501;49.926;8.404;2024-02-26T00:26:47;8.00;99.90
16767;DHT22;8501;49.926;8.404;2024-02-26T00:29:18;8.00;99.90
16767;DHT22;8501;49.926;8.404;2024-02-26T00:31:45;7.90;99.90
16767;DHT22;8501;49.926;8.404;2024-02-26T00:34:11;7.90;99.90
16767;DHT22;8501;49.926;8.404;2024-02-26T00:36:36;8.00;99.90
16767;DHT22;8501;49.926;8.404;2024-02-26T00:39:02;7.90;99.90
16767;DHT22;8501;49.926;8.404;2024-02-26T00:41:29;7.90;99.90
16767;DHT22;8501;49.926;8.404;2024-02-26T00:43:54;7.90;99.90
16767;DHT22;8501;49.926;8.404;2024-02-26T00:46:20;7.90;99.90
16767;DHT22;8501;49.926;8.404;2024-02-26T00:48:46;7.90;99.90
16767;DHT22;8501;49.926;8.404;2024-02-26T00:51:11;7.90;99.90
16767;DHT22;8501;49.926;8.404;2024-02-26T00:53:38;7.90;99.90
16767;DHT22;8501;49.926;8.404;2024-02-26T00:56:04;7.90;99.90
16767;DHT22;8501;49.926;8.404;2024-02-26T00:58:31;7.90;99.90
16767;DHT22;8501;49.926;8.404;2024-02-26T01:00:58;7.90;99.90
16767;DHT22;8501;49.926;8.404;2024-02-26T01:03:24;7.90;99.90
16767;DHT22;8501;49.926;8.404;2024-02-26T01:05:50;7.90;99.90
16767;DHT22;8501;49.926;8.404;2024-02-26T01:08:15;7.90;99.90
16767;DHT22;8501;49.926;8.404;2024-02-26T01:10:43;7.80;99.90
16767;DHT22;8501;49.926;8.404;2024-02-26T01:13:11;7.80;99.90
16767;DHT22;8501;49.926;8.404;2024-02-26T01:15:37;7.80;99.90
16767;DHT22;8501;49.926;8.404;2024-02-26T01:18:03;8.00;99.90
16767;DHT22;8501;49.926;8.404;2024-02-26T01:20:31;7.70;99.90
16767;DHT22;8501;49.926;8.404;2024-02-26T01:22:57;7.70;99.90
16767;DHT22;8501;49.926;8.404;2024-02-26T01:25:22;7.80;99.90
16767;DHT22;8501;49.926;8.404;2024-02-26T01:27:49;7.70;99.90
16767;DHT22;8501;49.926;8.404;2024-02-26T01:30:15;7.80;99.90
16767;DHT22;8501;49.926;8.404;2024-02-26T01:32:42;7.80;99.90
16767;DHT22;8501;49.926;8.404;2024-02-26T01:35:10;7.80;99.90
16767;DHT22;8501;49.926;8.404;2024-02-26T01:37:37;7.80;99.90
16767;DHT22;8501;49.926;8.404;2024-02-26T01:40:03;7.80;99.90
16767;DHT22;8501;49.926;8.404;2024-02-26T01:42:32;7.80;99.90
16767;DHT22;8501;49.926;8.404;2024-02-26T01:44:59;7.80;99.90
16767;DHT22;8501;49.926;8.404;2024-02-26T01:47:25;7.80;99.90
16767;DHT22;8501;49.926;8.404;2024-02-26T01:49:53;7.80;99.90
16767;DHT22;8501;49.926;8.404;2024-02-26T01:52:19;7.80;99.90
16767;DHT22;8501;49.926;8.404;2024-02-26T01:54:45;7.80;99.90
16767;DHT22;8501;49.926;8.404;2024-02-26T01:57:12;7.80;99.90
16767;DHT22;8501;49.926;8.404;2024-02-26T01:59:40;7.80;99.90
16767;DHT22;8501;49.926;8.404;2024-02-26T02:02:07;7.80;99.90
16767;DHT22;8501;49.926;8.404;2024-02-26T02:04:35;7.80;99.90
16767;DHT22;8501;49.926;8.404;2024-02-26T02:07:01;7.80;99.90
16767;DHT22;8501;49.926;8.404;2024-02-26T02:09:28;7.80;99.90
16767;DHT22;8501;49.926;8.404;2024-02-26T02:11:53;7.80;99.90
16767;DHT22;8501;49.926;8.404;2024-02-26T02:14:19;7.80;99.90
16767;DHT22;8501;49.926;8.404;2024-02-26T02:16:45;7.80;99.90
16767;DHT22;8501;49.926;8.404;2024-02-26T02:19:11;7.80;99.90
16767;DHT22;8501;49.926;8.404;2024-02-26T02:21:36;7.80;99.90
16767;DHT22;8501;49.926;8.404;2024-02-26T02:24:03;7.80;99.90
16767;DHT22;8501;49.926;8.404;2024-02-26T02:26:29;7.80;99.90
16767;DHT22;8501;49.926;8.404;2024-02-26T02:28:55;7.80;99.90
16767;DHT22;8501;49.926;8.404;2024-02-26T02:31:20;7.80;99.90
16767;DHT22;8501;49.926;8.404;2024-02-26T02:33:47;7.80;99.90
16767;DHT22;8501;49.926;8.404;2024-02-26T02:36:13;7.80;99.90
16767;DHT22;8501;49.926;8.404;2024-02-26T02:38:48;7.80;99.90
16767;DHT22;8501;49.926;8.404;2024-02-26T02:41:15;7.90;99.90
16767;DHT22;8501;49.926;8.404;2024-02-26T02:43:41;7.80;99.90
16767;DHT22;8501;49.926;8.404;2024-02-26T02:46:06;7.80;99.90
16767;DHT22;8501;49.926;8.404;2024-02-26T02:48:32;7.80;99.90
16767;DHT22;8501;49.926;8.404;2024-02-26T02:50:58;7.80;99.90
16767;DHT22;8501;49.926;8.404;2024-02-26T02:53:24;7.80;99.90
16767;DHT22;8501;49.926;8.404;2024-02-26T02:55:50;7.80;99.90
16767;DHT22;8501;49.926;8.404;2024-02-26T02:58:16;7.70;99.90
16767;DHT22;8501;49.926;8.404;2024-02-26T03:00:41;7.80;99.90
16767;DHT22;8501;49.926;8.404;2024-02-26T03:03:07;7.80;99.90
16767;DHT22;8501;49.926;8.404;2024-02-26T03:05:33;7.80;99.90
16767;DHT22;8501;49.926;8.404;2024-02-26T03:07:59;7.80;99.90
16767;DHT22;8501;49.926;8.404;2024-02-26T03:10:25;7.80;99.90
16767;DHT22;8501;49.926;8.404;2024-02-26T03:12:50;7.80;99.90
16767;DHT22;8501;49.926;8.404;2024-02-26T03:15:16;7.80;99.90
16767;DHT22;8501;49.926;8.404;2024-02-26T03:17:41;7.80;99.90
16767;DHT22;8501;49.926;8.404;2024-02-26T03:20:08;7.80;99.90
16767;DHT22;8501;49.926;8.404;2024-02-26T03:22:35;7.80;99.90
16767;DHT22;8501;49.926;8.404;2024-02-26T03:25:00;7.80;99.90
16767;DHT22;8501;49.926;8.404;2024-02-26T03:27:26;7.80;99.90
16767;DHT22;8501;49.926;8.404;2024-02-26T03:29:53;7.80;99.90
16767;DHT22;8501;49.926;8.404;2024-02-26T03:32:22;7.80;99.90
16767;DHT22;8501;49.926;8.404;2024-02-26T03:34:48;7.80;99.90
16767;DHT22;8501;49.926;8.404;2024-02-26T03:37:13;7.80;99.90
16767;DHT22;8501;49.926;8.404;2024-02-26T03:39:40;7.80;99.90
16767;DHT22;8501;49.926;8.404;2024-02-26T03:42:06;7.70;99.90
16767;DHT22;8501;49.926;8.404;2024-02-26T03:44:31;7.80;99.90
16767;DHT22;8501;49.926;8.404;2024-02-26T03:46:58;7.70;99.90
16767;DHT22;8501;49.926;8.404;2024-02-26T03:49:24;7.70;99.90
16767;DHT22;8501;49.926;8.404;2024-02-26T03:51:49;7.70;99.90
16767;DHT22;8501;49.926;8.404;2024-02-26T03:54:15;7.70;99.90
16767;DHT22;8501;49.926;8.404;2024-02-26T03:56:40;7.60;99.90
16767;DHT22;8501;49.926;8.404;2024-02-26T03:59:06;7.60;99.90
16767;DHT22;8501;49.926;8.404;2024-02-26T04:01:31;7.60;99.90
16767;DHT22;8501;49.926;8.404;2024-02-26T04:03:57;7.50;99.90
16767;DHT22;8501;49.926;8.404;2024-02-26T04:06:22;7.50;99.90
16767;DHT22;8501;49.926;8.404;2024-02-26T04:08:48;7.50;99.90
16767;DHT22;8501;49.926;8.404;2024-02-26T04:11:14;7.50;99.90
16767;DHT22;8501;49.926;8.404;2024-02-26T04:13:43;7.50;99.90
16767;DHT22;8501;49.926;8.404;2024-02-26T04:16:11;7.50;99.90
16767;DHT22;8501;49.926;8.404;2024-02-26T04:18:37;7.50;99.90
16767;DHT22;8501;49.926;8.404;2024-02-26T04:21:04;7.50;99.90
16767;DHT22;8501;49.926;8.404;2024-02-26T04:23:30;7.50;99.90
16767;DHT22;8501;49.926;8.404;2024-02-26T04:25:56;7.50;99.90
16767;DHT22;8501;49.926;8.404;2024-02-26T04:28:22;7.50;99.90
16767;DHT22;8501;49.926;8.404;2024-02-26T04:30:48;7.50;99.90
16767;DHT22;8501;49.926;8.404;2024-02-26T04:33:15;7.50;99.90
16767;DHT22;8501;49.926;8.404;2024-02-26T04:35:40;7.50;99.90
16767;DHT22;8501;49.926;8.404;2024-02-26T04:38:06;7.50;99.90
16767;DHT22;8501;49.926;8.404;2024-02-26T04:40:33;7.40;99.90
16767;DHT22;8501;49.926;8.404;2024-02-26T04:43:02;7.40;99.90
16767;DHT22;8501;49.926;8.404;2024-02-26T04:45:28;7.40;99.90
16767;DHT22;8501;49.926;8.404;2024-02-26T04:47:54;7.40;99.90
16767;DHT22;8501;49.926;8.404;2024-02-26T04:50:19;7.40;99.90
16767;DHT22;8501;49.926;8.404;2024-02-26T04:52:45;7.40;99.90
16767;DHT22;8501;49.926;8.404;2024-02-26T04:55:11;7.40;99.90
16767;DHT22;8501;49.926;8.404;2024-02-26T04:57:39;7.40;99.90
16767;DHT22;8501;49.926;8.404;2024-02-26T05:00:06;7.40;99.90
16767;DHT22;8501;49.926;8.404;2024-02-26T05:02:32;7.40;99.90
16767;DHT22;8501;49.926;8.404;2024-02-26T05:05:06;7.30;99.90
16767;DHT22;8501;49.926;8.404;2024-02-26T05:07:34;7.30;99.90
16767;DHT22;8501;49.926;8.404;2024-02-26T05:10:00;7.30;99.90
16767;DHT22;8501;49.926;8.404;2024-02-26T05:12:27;7.30;99.90
16767;DHT22;8501;49.926;8.404;2024-02-26T05:14:52;7.30;99.90
16767;DHT22;8501;49.926;8.404;2024-02-26T05:17:18;7.20;99.90
16767;DHT22;8501;49.926;8.404;2024-02-26T05:19:45;7.30;99.90
16767;DHT22;8501;49.926;8.404;2024-02-26T05:22:12;7.30;99.90
16767;DHT22;8501;49.926;8.404;2024-02-26T05:24:38;7.30;99.90
16767;DHT22;8501;49.926;8.404;2024-02-26T05:27:04;7.30;99.90
16767;DHT22;8501;49.926;8.404;2024-02-26T05:29:30;7.30;99.90
16767;DHT22;8501;49.926;8.404;2024-02-26T05:31:56;7.30;99.90
16767;DHT22;8501;49.926;8.404;2024-02-26T05:34:21;7.50;99.90
16767;DHT22;8501;49.926;8.404;2024-02-26T05:36:47;7.30;99.90
16767;DHT22;8501;49.926;8.404;2024-02-26T05:39:13;7.40;99.90
16767;DHT22;8501;49.926;8.404;2024-02-26T05:41:39;7.30;99.90
16767;DHT22;8501;49.926;8.404;2024-02-26T05:44:05;7.30;99.90
16767;DHT22;8501;49.926;8.404;2024-02-26T05:46:35;7.20;99.90
16767;DHT22;8501;49.926;8.404;2024-02-26T05:49:00;7.30;99.90
16767;DHT22;8501;49.926;8.404;2024-02-26T05:51:26;7.30;99.90
16767;DHT22;8501;49.926;8.404;2024-02-26T05:53:51;7.30;99.90
16767;DHT22;8501;49.926;8.404;2024-02-26T05:56:21;7.30;99.90
16767;DHT22;8501;49.926;8.404;2024-02-26T05:58:46;7.30;99.90
16767;DHT22;8501;49.926;8.404;2024-02-26T06:01:16;7.30;99.90
16767;DHT22;8501;49.926;8.404;2024-02-26T06:03:42;7.30;99.90
16767;DHT22;8501;49.926;8.404;2024-02-26T06:06:07;7.30;99.90
16767;DHT22;8501;49.926;8.404;2024-02-26T06:08:33;7.30;99.90
16767;DHT22;8501;49.926;8.404;2024-02-26T06:10:59;7.20;99.90
16767;DHT22;8501;49.926;8.404;2024-02-26T06:13:24;7.20;99.90
16767;DHT22;8501;49.926;8.404;2024-02-26T06:15:50;7.20;99.90
16767;DHT22;8501;49.926;8.404;2024-02-26T06:18:16;7.20;99.90
16767;DHT22;8501;49.926;8.404;2024-02-26T06:20:43;7.20;99.90
16767;DHT22;8501;49.926;8.404;2024-02-26T06:23:09;7.30;99.90
16767;DHT22;8501;49.926;8.404;2024-02-26T06:25:35;7.20;99.90
16767;DHT22;8501;49.926;8.404;2024-02-26T06:28:01;7.20;99.90
16767;DHT22;8501;49.926;8.404;2024-02-26T06:30:27;7.20;99.90
16767;DHT22;8501;49.926;8.404;2024-02-26T06:32:53;7.20;99.90
16767;DHT22;8501;49.926;8.404;2024-02-26T06:35:19;7.20;99.90
16767;DHT22;8501;49.926;8.404;2024-02-26T06:37:44;7.40;99.90
16767;DHT22;8501;49.926;8.404;2024-02-26T06:40:11;7.20;99.90
16767;DHT22;8501;49.926;8.404;2024-02-26T06:42:37;7.20;99.90
16767;DHT22;8501;49.926;8.404;2024-02-26T06:45:03;7.20;99.90
16767;DHT22;8501;49.926;8.404;2024-02-26T06:47:30;7.20;99.90
16767;DHT22;8501;49.926;8.404;2024-02-26T06:49:56;7.20;99.90
16767;DHT22;8501;49.926;8.404;2024-02-26T06:52:23;7.20;99.90
16767;DHT22;8501;49.926;8.404;2024-02-26T06:54:50;7.10;99.90
16767;DHT22;8501;49.926;8.404;2024-02-26T06:57:20;7.10;99.90
16767;DHT22;8501;49.926;8.404;2024-02-26T06:59:52;7.20;99.90
16767;DHT22;8501;49.926;8.404;2024-02-26T07:02:17;7.20;99.90
16767;DHT22;8501;49.926;8.404;2024-02-26T07:04:43;7.20;99.90
16767;DHT22;8501;49.926;8.404;2024-02-26T07:07:09;7.10;99.90
16767;DHT22;8501;49.926;8.404;2024-02-26T07:09:35;7.10;99.90
16767;DHT22;8501;49.926;8.404;2024-02-26T07:12:02;7.20;99.90
16767;DHT22;8501;49.926;8.404;2024-02-26T07:14:28;7.10;99.90
16767;DHT22;8501;49.926;8.404;2024-02-26T07:16:53;7.10;99.90
16767;DHT22;8501;49.926;8.404;2024-02-26T07:19:21;7.10;99.90
16767;DHT22;8501;49.926;8.404;2024-02-26T07:21:48;7.20;99.90
16767;DHT22;8501;49.926;8.404;2024-02-26T07:24:17;7.10;99.90
16767;DHT22;8501;49.926;8.404;2024-02-26T07:26:42;7.10;99.90
16767;DHT22;8501;49.926;8.404;2024-02-26T07:29:08;7.20;99.90
16767;DHT22;8501;49.926;8.404;2024-02-26T07:31:35;7.10;99.90
16767;DHT22;8501;49.926;8.404;2024-02-26T07:34:00;7.10;99.90
16767;DHT22;8501;49.926;8.404;2024-02-26T07:36:26;7.10;99.90
16767;DHT22;8501;49.926;8.404;2024-02-26T07:38:51;7.10;99.90
16767;DHT22;8501;49.926;8.404;2024-02-26T07:41:20;7.10;99.90
16767;DHT22;8501;49.926;8.404;2024-02-26T07:43:45;7.10;99.90
16767;DHT22;8501;49.926;8.404;2024-02-26T07:46:12;7.10;99.90
16767;DHT22;8501;49.926;8.404;2024-02-26T07:48:39;7.20;99.90
16767;DHT22;8501;49.926;8.404;2024-02-26T07:51:05;7.20;99.90
16767;DHT22;8501;49.926;8.404;2024-02-26T07:53:30;7.20;99.90
16767;DHT22;8501;49.926;8.404;2024-02-26T07:55:56;7.20;99.90
16767;DHT22;8501;49.926;8.404;2024-02-26T07:58:23;7.20;99.90
16767;DHT22;8501;49.926;8.404;2024-02-26T08:00:49;7.20;99.90
16767;DHT22;8501;49.926;8.404;2024-02-26T08:03:15;7.20;99.90
16767;DHT22;8501;49.926;8.404;2024-02-26T08:05:41;7.20;99.90
16767;DHT22;8501;49.926;8.404;2024-02-26T08:08:08;7.20;99.90
16767;DHT22;8501;49.926;8.404;2024-02-26T08:10:34;7.20;99.90
16767;DHT22;8501;49.926;8.404;2024-02-26T08:13:00;7.20;99.90
16767;DHT22;8501;49.926;8.404;2024-02-26T08:15:35;7.20;99.90
16767;DHT22;8501;49.926;8.404;2024-02-26T08:18:04;7.20;99.90
16767;DHT22;8501;49.926;8.404;2024-02-26T08:20:30;7.20;99.90
16767;DHT22;8501;49.926;8.404;2024-02-26T08:22:57;7.20;99.90
16767;DHT22;8501;49.926;8.404;2024-02-26T08:25:23;7.10;99.90
16767;DHT22;8501;49.926;8.404;2024-02-26T08:27:50;7.20;99.90
16767;DHT22;8501;49.926;8.404;2024-02-26T08:30:18;7.20;99.90
16767;DHT22;8501;49.926;8.404;2024-02-26T08:32:46;7.20;99.90
16767;DHT22;8501;49.926;8.404;2024-02-26T08:35:16;7.10;99.90
16767;DHT22;8501;49.926;8.404;2024-02-26T08:37:46;7.10;99.90
16767;DHT22;8501;49.926;8.404;2024-02-26T08:40:11;7.20;99.90
16767;DHT22;8501;49.926;8.404;2024-02-26T08:42:37;7.20;99.90
16767;DHT22;8501;49.926;8.404;2024-02-26T08:45:06;7.20;99.90
16767;DHT22;8501;49.926;8.404;2024-02-26T08:47:32;7.20;99.90
16767;DHT22;8501;49.926;8.404;2024-02-26T08:49:59;7.20;99.90
16767;DHT22;8501;49.926;8.404;2024-02-26T08:52:24;7.20;99.90
16767;DHT22;8501;49.926;8.404;2024-02-26T08:54:50;7.20;99.90
16767;DHT22;8501;49.926;8.404;2024-02-26T08:57:16;7.20;99.90
16767;DHT22;8501;49.926;8.404;2024-02-26T08:59:41;7.20;99.90
16767;DHT22;8501;49.926;8.404;2024-02-26T09:02:09;7.20;99.90
16767;DHT22;8501;49.926;8.404;2024-02-26T09:04:35;7.30;99.90
16767;DHT22;8501;49.926;8.404;2024-02-26T09:07:07;7.20;99.90
16767;DHT22;8501;49.926;8.404;2024-02-26T09:09:32;7.20;99.90
16767;DHT22;8501;49.926;8.404;2024-02-26T09:11:58;7.30;99.90
16767;DHT22;8501;49.926;8.404;2024-02-26T09:14:23;7.20;99.90
16767;DHT22;8501;49.926;8.404;2024-02-26T09:16:49;7.30;99.90
16767;DHT22;8501;49.926;8.404;2024-02-26T09:19:15;7.30;99.90
16767;DHT22;8501;49.926;8.404;2024-02-26T09:21:44;7.30;99.90
16767;DHT22;8501;49.926;8.404;2024-02-26T09:24:13;7.30;99.90
16767;DHT22;8501;49.926;8.404;2024-02-26T09:26:39;7.30;99.90
16767;DHT22;8501;49.926;8.404;2024-02-26T09:29:04;7.30;99.90
16767;DHT22;8501;49.926;8.404;2024-02-26T09:31:33;7.30;99.90
16767;DHT22;8501;49.926;8.404;2024-02-26T09:33:59;7.30;99.90
16767;DHT22;8501;49.926;8.404;2024-02-26T09:36:25;7.40;99.90
16767;DHT22;8501;49.926;8.404;2024-02-26T09:38:50;7.40;99.90
16767;DHT22;8501;49.926;8.404;2024-02-26T09:41:16;7.40;99.90
16767;DHT22;8501;49.926;8.404;2024-02-26T09:43:44;7.40;99.90
16767;DHT22;8501;49.926;8.404;2024-02-26T09:46:10;7.50;99.90
16767;DHT22;8501;49.926;8.404;2024-02-26T09:48:37;7.40;99.90
16767;DHT22;8501;49.926;8.404;2024-02-26T09:51:03;7.50;99.90
16767;DHT22;8501;49.926;8.404;2024-02-26T09:53:30;7.50;99.90
16767;DHT22;8501;49.926;8.404;2024-02-26T09:55:59;7.50;99.90
16767;DHT22;8501;49.926;8.404;2024-02-26T09:58:27;7.50;99.90
16767;DHT22;8501;49.926;8.404;2024-02-26T10:00:56;7.60;99.90
16767;DHT22;8501;49.926;8.404;2024-02-26T10:03:27;7.60;99.90
16767;DHT22;8501;49.926;8.404;2024-02-26T10:05:53;7.60;99.90
16767;DHT22;8501;49.926;8.404;2024-02-26T10:08:23;7.70;99.90
16767;DHT22;8501;49.926;8.404;2024-02-26T10:10:49;7.70;99.90
16767;DHT22;8501;49.926;8.404;2024-02-26T10:13:15;7.70;99.90
16767;DHT22;8501;49.926;8.404;2024-02-26T10:15:42;7.80;99.90
16767;DHT22;8501;49.926;8.404;2024-02-26T10:18:08;7.80;99.90
16767;DHT22;8501;49.926;8.404;2024-02-26T10:20:33;7.80;99.90
16767;DHT22;8501;49.926;8.404;2024-02-26T10:23:03;7.90;99.90
16767;DHT22;8501;49.926;8.404;2024-02-26T10:25:29;7.90;99.90
16767;DHT22;8501;49.926;8.404;2024-02-26T10:28:00;7.90;99.90
16767;DHT22;8501;49.926;8.404;2024-02-26T10:30:28;7.90;99.90
16767;DHT22;8501;49.926;8.404;2024-02-26T10:32:56;7.90;99.90
16767;DHT22;8501;49.926;8.404;2024-02-26T10:35:22;7.90;99.90
16767;DHT22;8501;49.926;8.404;2024-02-26T10:37:49;8.00;99.90
16767;DHT22;8501;49.926;8.404;2024-02-26T10:40:15;8.00;99.90
16767;DHT22;8501;49.926;8.404;2024-02-26T10:42:42;8.10;99.90
16767;DHT22;8501;49.926;8.404;2024-02-26T10:45:10;8.10;99.90
16767;DHT22;8501;49.926;8.404;2024-02-26T10:47:36;8.20;99.90
16767;DHT22;8501;49.926;8.404;2024-02-26T10:50:03;8.20;99.90
16767;DHT22;8501;49.926;8.404;2024-02-26T10:52:32;8.20;99.90
16767;DHT22;8501;49.926;8.404;2024-02-26T10:55:01;8.30;99.90
16767;DHT22;8501;49.926;8.404;2024-02-26T10:57:38;8.30;99.90
16767;DHT22;8501;49.926;8.404;2024-02-26T11:00:05;8.40;99.90
16767;DHT22;8501;49.926;8.404;2024-02-26T11:02:36;8.40;99.90
16767;DHT22;8501;49.926;8.404;2024-02-26T11:05:06;8.40;99.90
16767;DHT22;8501;49.926;8.404;2024-02-26T11:07:36;8.40;99.90
16767;DHT22;8501;49.926;8.404;2024-02-26T11:10:04;8.50;99.90
16767;DHT22;8501;49.926;8.404;2024-02-26T11:12:31;8.50;99.90
16767;DHT22;8501;49.926;8.404;2024-02-26T11:14:58;8.50;99.90
16767;DHT22;8501;49.926;8.404;2024-02-26T11:17:26;8.50;99.90
16767;DHT22;8501;49.926;8.404;2024-02-26T11:19:57;8.50;99.90
16767;DHT22;8501;49.926;8.404;2024-02-26T11:22:27;8.60;99.90
16767;DHT22;8501;49.926;8.404;2024-02-26T11:24:54;8.60;99.90
16767;DHT22;8501;49.926;8.404;2024-02-26T11:27:25;8.60;99.90
16767;DHT22;8501;49.926;8.404;2024-02-26T11:29:55;8.70;99.90
16767;DHT22;8501;49.926;8.404;2024-02-26T11:32:23;8.70;99.90
16767;DHT22;8501;49.926;8.404;2024-02-26T11:34:49;8.80;99.90
16767;DHT22;8501;49.926;8.404;2024-02-26T11:37:16;8.80;99.90
16767;DHT22;8501;49.926;8.404;2024-02-26T11:39:45;8.90;99.90
16767;DHT22;8501;49.926;8.404;2024-02-26T11:42:15;8.90;99.90
16767;DHT22;8501;49.926;8.404;2024-02-26T11:44:40;9.00;99.90
16767;DHT22;8501;49.926;8.404;2024-02-26T11:47:18;9.00;99.90
16767;DHT22;8501;49.926;8.404;2024-02-26T11:49:44;9.20;99.90
16767;DHT22;8501;49.926;8.404;2024-02-26T11:52:10;9.30;99.90
16767;DHT22;8501;49.926;8.404;2024-02-26T11:54:50;9.30;99.90
16767;DHT22;8501;49.926;8.404;2024-02-26T11:57:29;9.40;99.90
16767;DHT22;8501;49.926;8.404;2024-02-26T11:59:56;9.40;99.90
16767;DHT22;8501;49.926;8.404;2024-02-26T12:02:47;9.50;99.90
16767;DHT22;8501;49.926;8.404;2024-02-26T12:05:17;9.50;99.90
16767;DHT22;8501;49.926;8.404;2024-02-26T12:07:49;9.50;99.90
16767;DHT22;8501;49.926;8.404;2024-02-26T12:10:27;9.40;99.90
16767;DHT22;8501;49.926;8.404;2024-02-26T12:13:09;9.40;99.90
16767;DHT22;8501;49.926;8.404;2024-02-26T12:15:41;9.40;99.90
16767;DHT22;8501;49.926;8.404;2024-02-26T12:18:08;9.40;99.90
16767;DHT22;8501;49.926;8.404;2024-02-26T12:20:35;9.40;99.90
16767;DHT22;8501;49.926;8.404;2024-02-26T12:23:02;9.40;99.90
16767;DHT22;8501;49.926;8.404;2024-02-26T12:25:29;9.40;99.90
16767;DHT22;8501;49.926;8.404;2024-02-26T12:27:56;9.50;99.90
16767;DHT22;8501;49.926;8.404;2024-02-26T12:30:22;9.50;99.90
16767;DHT22;8501;49.926;8.404;2024-02-26T12:32:49;9.50;99.90
16767;DHT22;8501;49.926;8.404;2024-02-26T12:35:15;9.50;99.90
16767;DHT22;8501;49.926;8.404;2024-02-26T12:37:42;9.50;99.90
16767;DHT22;8501;49.926;8.404;2024-02-26T12:40:09;9.60;99.90
16767;DHT22;8501;49.926;8.404;2024-02-26T12:42:35;9.60;99.90
16767;DHT22;8501;49.926;8.404;2024-02-26T12:45:11;9.70;99.90
16767;DHT22;8501;49.926;8.404;2024-02-26T12:47:44;9.80;99.90
16767;DHT22;8501;49.926;8.404;2024-02-26T12:50:11;9.90;99.90
16767;DHT22;8501;49.926;8.404;2024-02-26T12:52:46;9.90;99.90
16767;DHT22;8501;49.926;8.404;2024-02-26T12:55:16;10.00;99.90
16767;DHT22;8501;49.926;8.404;2024-02-26T12:57:43;10.10;99.90
16767;DHT22;8501;49.926;8.404;2024-02-26T13:00:12;10.10;99.90
16767;DHT22;8501;49.926;8.404;2024-02-26T13:02:40;10.20;99.90
16767;DHT22;8501;49.926;8.404;2024-02-26T13:05:08;10.20;99.90
16767;DHT22;8501;49.926;8.404;2024-02-26T13:07:35;10.30;99.90
16767;DHT22;8501;49.926;8.404;2024-02-26T13:10:06;10.30;99.90
16767;DHT22;8501;49.926;8.404;2024-02-26T13:12:32;10.30;99.90
16767;DHT22;8501;49.926;8.404;2024-02-26T13:15:04;10.40;99.90
16767;DHT22;8501;49.926;8.404;2024-02-26T13:17:35;10.40;99.90
16767;DHT22;8501;49.926;8.404;2024-02-26T13:20:00;10.50;99.90
16767;DHT22;8501;49.926;8.404;2024-02-26T13:22:26;10.60;99.90
16767;DHT22;8501;49.926;8.404;2024-02-26T13:24:56;10.70;99.90
16767;DHT22;8501;49.926;8.404;2024-02-26T13:27:23;10.70;99.90
16767;DHT22;8501;49.926;8.404;2024-02-26T13:30:19;10.60;99.90
16767;DHT22;8501;49.926;8.404;2024-02-26T13:32:45;10.60;99.90
16767;DHT22;8501;49.926;8.404;2024-02-26T13:35:12;10.50;99.90
16767;DHT22;8501;49.926;8.404;2024-02-26T13:37:39;10.50;99.90
16767;DHT22;8501;49.926;8.404;2024-02-26T13:40:09;10.60;99.90
16767;DHT22;8501;49.926;8.404;2024-02-26T13:42:37;10.70;99.90
16767;DHT22;8501;49.926;8.404;2024-02-26T13:45:04;10.70;99.90
16767;DHT22;8501;49.926;8.404;2024-02-26T13:47:34;10.80;99.90
16767;DHT22;8501;49.926;8.404;2024-02-26T13:50:04;10.90;99.90
16767;DHT22;8501;49.926;8.404;2024-02-26T13:52:30;10.80;99.90
16767;DHT22;8501;49.926;8.404;2024-02-26T13:54:58;10.80;99.90
16767;DHT22;8501;49.926;8.404;2024-02-26T13:57:24;10.70;99.90
16767;DHT22;8501;49.926;8.404;2024-02-26T13:59:50;10.60;99.90
16767;DHT22;8501;49.926;8.404;2024-02-26T14:02:20;10.60;99.90
16767;DHT22;8501;49.926;8.404;2024-02-26T14:04:52;10.70;99.90
16767;DHT22;8501;49.926;8.404;2024-02-26T14:07:19;10.70;99.90
16767;DHT22;8501;49.926;8.404;2024-02-26T14:09:48;10.70;99.90
16767;DHT22;8501;49.926;8.404;2024-02-26T14:12:14;10.70;99.90
16767;DHT22;8501;49.926;8.404;2024-02-26T14:14:40;10.70;99.90
16767;DHT22;8501;49.926;8.404;2024-02-26T14:17:07;10.70;99.90
16767;DHT22;8501;49.926;8.404;2024-02-26T14:19:33;10.80;99.90
16767;DHT22;8501;49.926;8.404;2024-02-26T14:22:00;10.70;99.90
16767;DHT22;8501;49.926;8.404;2024-02-26T14:24:26;10.70;99.90
16767;DHT22;8501;49.926;8.404;2024-02-26T14:26:53;10.60;99.90
16767;DHT22;8501;49.926;8.404;2024-02-26T14:29:18;10.50;99.90
16767;DHT22;8501;49.926;8.404;2024-02-26T14:31:45;10.60;99.90
16767;DHT22;8501;49.926;8.404;2024-02-26T14:34:11;10.50;99.90
16767;DHT22;8501;49.926;8.404;2024-02-26T14:36:38;10.50;99.90
16767;DHT22;8501;49.926;8.404;2024-02-26T14:39:04;10.50;99.90
16767;DHT22;8501;49.926;8.404;2024-02-26T14:41:29;10.50;99.90
16767;DHT22;8501;49.926;8.404;2024-02-26T14:43:55;10.50;99.90
16767;DHT22;8501;49.926;8.404;2024-02-26T14:46:21;10.50;99.90
16767;DHT22;8501;49.926;8.404;2024-02-26T14:48:48;10.50;99.90
16767;DHT22;8501;49.926;8.404;2024-02-26T14:51:14;10.60;99.90
16767;DHT22;8501;49.926;8.404;2024-02-26T14:53:40;10.60;99.90
16767;DHT22;8501;49.926;8.404;2024-02-26T14:56:05;10.50;99.90
16767;DHT22;8501;49.926;8.404;2024-02-26T14:58:31;10.50;99.90
16767;DHT22;8501;49.926;8.404;2024-02-26T15:00:57;10.50;99.90
16767;DHT22;8501;49.926;8.404;2024-02-26T15:03:22;10.50;99.90
16767;DHT22;8501;49.926;8.404;2024-02-26T15:05:53;10.60;99.90
16767;DHT22;8501;49.926;8.404;2024-02-26T15:08:20;10.50;99.90
16767;DHT22;8501;49.926;8.404;2024-02-26T15:10:45;10.50;99.90
16767;DHT22;8501;49.926;8.404;2024-02-26T15:13:16;10.60;99.90
16767;DHT22;8501;49.926;8.404;2024-02-26T15:15:44;10.60;99.90
16767;DHT22;8501;49.926;8.404;2024-02-26T15:18:12;10.70;99.90
16767;DHT22;8501;49.926;8.404;2024-02-26T15:20:43;11.00;99.90
16767;DHT22;8501;49.926;8.404;2024-02-26T15:23:09;11.10;99.90
16767;DHT22;8501;49.926;8.404;2024-02-26T15:25:35;11.00;99.90
16767;DHT22;8501;49.926;8.404;2024-02-26T15:28:01;10.90;99.90
16767;DHT22;8501;49.926;8.404;2024-02-26T15:30:28;10.90;99.90
16767;DHT22;8501;49.926;8.404;2024-02-26T15:32:56;10.80;99.90
16767;DHT22;8501;49.926;8.404;2024-02-26T15:35:22;10.80;99.90
16767;DHT22;8501;49.926;8.404;2024-02-26T15:37:48;10.80;99.90
16767;DHT22;8501;49.926;8.404;2024-02-26T15:40:14;10.70;99.90
16767;DHT22;8501;49.926;8.404;2024-02-26T15:42:41;10.70;99.90
16767;DHT22;8501;49.926;8.404;2024-02-26T15:45:06;10.70;99.90
16767;DHT22;8501;49.926;8.404;2024-02-26T15:47:33;10.70;99.90
16767;DHT22;8501;49.926;8.404;2024-02-26T15:49:59;10.70;99.90
16767;DHT22;8501;49.926;8.404;2024-02-26T15:52:25;10.60;99.90
16767;DHT22;8501;49.926;8.404;2024-02-26T15:54:51;10.60;99.90
16767;DHT22;8501;49.926;8.404;2024-02-26T15:57:18;10.60;99.90